sensor_id;sensor_type;location;lat;lon;timestamp;P1;durP1;ratioP1;P2;durP2;ratioP2
78995;SDS011;68401;47.192;-1.552;2023-03-30T00:01:17;9.07;;;3.47;;
78995;SDS011;68401;47.192;-1.552;2023-03-30T00:03:43;12.55;;;2.55;;
78995;SDS011;68401;47.192;-1.552;2023-03-30T00:06:09;7.38;;;2.22;;
78995;SDS011;68401;47.192;-1.552;2023-03-30T00:08:36;8.65;;;2.20;;
78995;SDS011;68401;47.192;-1.552;2023-03-30T00:11:03;9.10;;;2.28;;
78995;SDS011;68401;47.192;-1.552;2023-03-30T00:13:33;10.23;;;2.63;;
78995;SDS011;68401;47.192;-1.552;2023-03-30T00:16:00;9.18;;;2.08;;
78995;SDS011;68401;47.192;-1.552;2023-03-30T00:18:26;8.10;;;2.30;;
78995;SDS011;68401;47.192;-1.552;2023-03-30T00:20:51;5.38;;;1.83;;
78995;SDS011;68401;47.192;-1.552;2023-03-30T00:23:17;4.22;;;2.00;;
78995;SDS011;68401;47.192;-1.552;2023-03-30T00:25:43;6.70;;;2.05;;
78995;SDS011;68401;47.192;-1.552;2023-03-30T00:28:09;8.95;;;2.03;;
78995;SDS011;68401;47.192;-1.552;2023-03-30T00:30:35;12.48;;;2.95;;
78995;SDS011;68401;47.192;-1.552;2023-03-30T00:33:02;14.15;;;2.78;;
78995;SDS011;68401;47.192;-1.552;2023-03-30T00:35:27;7.38;;;2.00;;
78995;SDS011;68401;47.192;-1.552;2023-03-30T00:37:55;7.97;;;2.50;;
78995;SDS011;68401;47.192;-1.552;2023-03-30T00:40:27;11.32;;;2.42;;
78995;SDS011;68401;47.192;-1.552;2023-03-30T00:42:59;6.75;;;1.65;;
78995;SDS011;68401;47.192;-1.552;2023-03-30T00:45:35;5.05;;;2.03;;
78995;SDS011;68401;47.192;-1.552;2023-03-30T00:48:20;4.97;;;2.40;;
78995;SDS011;68401;47.192;-1.552;2023-03-30T00:50:51;6.82;;;2.08;;
78995;SDS011;68401;47.192;-1.552;2023-03-30T00:53:23;9.98;;;2.70;;
78995;SDS011;68401;47.192;-1.552;2023-03-30T00:55:50;10.55;;;2.65;;
78995;SDS011;68401;47.192;-1.552;2023-03-30T00:58:17;12.77;;;2.70;;
78995;SDS011;68401;47.192;-1.552;2023-03-30T01:00:44;9.55;;;2.40;;
78995;SDS011;68401;47.192;-1.552;2023-03-30T01:05:44;10.73;;;3.03;;
78995;SDS011;68401;47.192;-1.552;2023-03-30T01:08:10;8.93;;;2.30;;
78995;SDS011;68401;47.192;-1.552;2023-03-30T01:10:37;10.15;;;2.90;;
78995;SDS011;68401;47.192;-1.552;2023-03-30T01:13:03;6.55;;;1.92;;
78995;SDS011;68401;47.192;-1.552;2023-03-30T01:15:31;11.43;;;2.33;;
78995;SDS011;68401;47.192;-1.552;2023-03-30T01:39:44;12.75;;;2.33;;
78995;SDS011;68401;47.192;-1.552;2023-03-30T01:42:55;11.15;;;3.75;;
78995;SDS011;68401;47.192;-1.552;2023-03-30T01:45:08;11.85;;;2.47;;
78995;SDS011;68401;47.192;-1.552;2023-03-30T01:50:27;13.10;;;2.45;;
78995;SDS011;68401;47.192;-1.552;2023-03-30T01:53:02;15.02;;;3.20;;
78995;SDS011;68401;47.192;-1.552;2023-03-30T01:55:57;11.85;;;3.13;;
78995;SDS011;68401;47.192;-1.552;2023-03-30T01:58:34;12.13;;;3.17;;
78995;SDS011;68401;47.192;-1.552;2023-03-30T02:01:00;16.88;;;3.83;;
78995;SDS011;68401;47.192;-1.552;2023-03-30T02:03:27;17.50;;;3.85;;
78995;SDS011;68401;47.192;-1.552;2023-03-30T02:05:55;20.40;;;3.35;;
78995;SDS011;68401;47.192;-1.552;2023-03-30T02:08:28;23.85;;;4.55;;
78995;SDS011;68401;47.192;-1.552;2023-03-30T02:10:55;15.68;;;4.00;;
78995;SDS011;68401;47.192;-1.552;2023-03-30T02:13:21;18.95;;;5.20;;
78995;SDS011;68401;47.192;-1.552;2023-03-30T02:15:48;17.17;;;4.95;;
78995;SDS011;68401;47.192;-1.552;2023-03-30T02:18:15;22.15;;;3.90;;
78995;SDS011;68401;47.192;-1.552;2023-03-30T02:20:43;17.65;;;3.10;;
78995;SDS011;68401;47.192;-1.552;2023-03-30T02:23:09;22.02;;;4.63;;
78995;SDS011;68401;47.192;-1.552;2023-03-30T02:25:35;22.02;;;3.70;;
78995;SDS011;68401;47.192;-1.552;2023-03-30T02:28:02;24.25;;;4.95;;
78995;SDS011;68401;47.192;-1.552;2023-03-30T02:30:35;21.20;;;4.72;;
78995;SDS011;68401;47.192;-1.552;2023-03-30T02:33:04;11.88;;;3.70;;
78995;SDS011;68401;47.192;-1.552;2023-03-30T02:41:08;17.05;;;4.47;;
78995;SDS011;68401;47.192;-1.552;2023-03-30T02:48:40;17.98;;;4.85;;
78995;SDS011;68401;47.192;-1.552;2023-03-30T02:54:20;23.88;;;5.20;;
78995;SDS011;68401;47.192;-1.552;2023-03-30T02:59:59;16.80;;;4.80;;
78995;SDS011;68401;47.192;-1.552;2023-03-30T03:02:36;19.50;;;4.55;;
78995;SDS011;68401;47.192;-1.552;2023-03-30T03:05:04;19.30;;;5.72;;
78995;SDS011;68401;47.192;-1.552;2023-03-30T03:07:35;22.35;;;5.20;;
78995;SDS011;68401;47.192;-1.552;2023-03-30T03:10:02;21.25;;;6.25;;
78995;SDS011;68401;47.192;-1.552;2023-03-30T03:12:28;26.05;;;5.78;;
78995;SDS011;68401;47.192;-1.552;2023-03-30T03:14:53;21.83;;;5.68;;
78995;SDS011;68401;47.192;-1.552;2023-03-30T03:17:19;23.10;;;5.72;;
78995;SDS011;68401;47.192;-1.552;2023-03-30T03:19:49;21.73;;;4.55;;
78995;SDS011;68401;47.192;-1.552;2023-03-30T03:22:15;23.73;;;4.10;;
78995;SDS011;68401;47.192;-1.552;2023-03-30T03:24:40;22.88;;;5.05;;
78995;SDS011;68401;47.192;-1.552;2023-03-30T03:27:06;25.90;;;5.50;;
78995;SDS011;68401;47.192;-1.552;2023-03-30T03:29:32;22.70;;;4.60;;
78995;SDS011;68401;47.192;-1.552;2023-03-30T03:31:58;31.25;;;5.72;;
78995;SDS011;68401;47.192;-1.552;2023-03-30T03:34:23;20.60;;;5.53;;
78995;SDS011;68401;47.192;-1.552;2023-03-30T03:36:55;27.30;;;5.10;;
78995;SDS011;68401;47.192;-1.552;2023-03-30T03:39:21;33.38;;;5.15;;
78995;SDS011;68401;47.192;-1.552;2023-03-30T03:41:46;17.73;;;5.00;;
78995;SDS011;68401;47.192;-1.552;2023-03-30T03:44:12;22.10;;;4.63;;
78995;SDS011;68401;47.192;-1.552;2023-03-30T03:46:37;34.50;;;7.03;;
78995;SDS011;68401;47.192;-1.552;2023-03-30T03:49:02;26.42;;;5.18;;
78995;SDS011;68401;47.192;-1.552;2023-03-30T03:51:29;34.13;;;5.82;;
78995;SDS011;68401;47.192;-1.552;2023-03-30T03:53:56;26.80;;;4.95;;
78995;SDS011;68401;47.192;-1.552;2023-03-30T03:56:22;26.75;;;6.07;;
78995;SDS011;68401;47.192;-1.552;2023-03-30T03:58:49;23.33;;;5.03;;
78995;SDS011;68401;47.192;-1.552;2023-03-30T04:01:15;25.00;;;5.82;;
78995;SDS011;68401;47.192;-1.552;2023-03-30T04:03:40;30.55;;;6.32;;
78995;SDS011;68401;47.192;-1.552;2023-03-30T04:06:06;28.98;;;5.88;;
78995;SDS011;68401;47.192;-1.552;2023-03-30T04:08:31;24.05;;;4.75;;
78995;SDS011;68401;47.192;-1.552;2023-03-30T04:11:15;25.65;;;5.22;;
78995;SDS011;68401;47.192;-1.552;2023-03-30T04:13:41;29.25;;;6.75;;
78995;SDS011;68401;47.192;-1.552;2023-03-30T04:16:08;35.95;;;5.93;;
78995;SDS011;68401;47.192;-1.552;2023-03-30T04:18:34;28.55;;;5.97;;
78995;SDS011;68401;47.192;-1.552;2023-03-30T04:21:00;27.42;;;6.47;;
78995;SDS011;68401;47.192;-1.552;2023-03-30T04:23:29;38.75;;;8.95;;
78995;SDS011;68401;47.192;-1.552;2023-03-30T04:26:02;33.67;;;5.78;;
78995;SDS011;68401;47.192;-1.552;2023-03-30T04:28:29;34.17;;;6.47;;
78995;SDS011;68401;47.192;-1.552;2023-03-30T04:31:04;34.85;;;6.38;;
78995;SDS011;68401;47.192;-1.552;2023-03-30T04:33:30;31.88;;;6.93;;
78995;SDS011;68401;47.192;-1.552;2023-03-30T04:35:59;33.83;;;6.85;;
78995;SDS011;68401;47.192;-1.552;2023-03-30T04:38:24;36.63;;;7.57;;
78995;SDS011;68401;47.192;-1.552;2023-03-30T04:40:50;28.73;;;5.38;;
78995;SDS011;68401;47.192;-1.552;2023-03-30T04:43:17;30.20;;;7.38;;
78995;SDS011;68401;47.192;-1.552;2023-03-30T04:45:48;29.20;;;5.13;;
78995;SDS011;68401;47.192;-1.552;2023-03-30T04:48:17;25.85;;;6.35;;
78995;SDS011;68401;47.192;-1.552;2023-03-30T04:50:43;37.70;;;9.18;;
78995;SDS011;68401;47.192;-1.552;2023-03-30T04:53:10;32.38;;;5.43;;
78995;SDS011;68401;47.192;-1.552;2023-03-30T04:55:35;31.55;;;5.50;;
78995;SDS011;68401;47.192;-1.552;2023-03-30T04:58:01;41.60;;;7.13;;
78995;SDS011;68401;47.192;-1.552;2023-03-30T05:00:26;22.20;;;4.57;;
78995;SDS011;68401;47.192;-1.552;2023-03-30T05:02:52;22.25;;;6.20;;
78995;SDS011;68401;47.192;-1.552;2023-03-30T05:05:18;36.15;;;5.80;;
78995;SDS011;68401;47.192;-1.552;2023-03-30T05:07:43;31.60;;;7.53;;
78995;SDS011;68401;47.192;-1.552;2023-03-30T05:10:10;30.80;;;7.30;;
78995;SDS011;68401;47.192;-1.552;2023-03-30T05:12:35;34.22;;;7.00;;
78995;SDS011;68401;47.192;-1.552;2023-03-30T05:15:01;47.95;;;8.57;;
78995;SDS011;68401;47.192;-1.552;2023-03-30T05:17:26;30.58;;;7.07;;
78995;SDS011;68401;47.192;-1.552;2023-03-30T05:19:52;27.48;;;6.80;;
78995;SDS011;68401;47.192;-1.552;2023-03-30T05:22:18;39.13;;;6.03;;
78995;SDS011;68401;47.192;-1.552;2023-03-30T05:24:44;29.65;;;5.97;;
78995;SDS011;68401;47.192;-1.552;2023-03-30T05:27:09;27.75;;;5.85;;
78995;SDS011;68401;47.192;-1.552;2023-03-30T05:29:35;35.15;;;6.20;;
78995;SDS011;68401;47.192;-1.552;2023-03-30T05:32:00;30.63;;;7.22;;
78995;SDS011;68401;47.192;-1.552;2023-03-30T05:34:26;37.05;;;7.82;;
78995;SDS011;68401;47.192;-1.552;2023-03-30T05:36:51;42.50;;;7.40;;
78995;SDS011;68401;47.192;-1.552;2023-03-30T05:39:18;36.33;;;5.35;;
78995;SDS011;68401;47.192;-1.552;2023-03-30T05:41:43;37.13;;;7.10;;
78995;SDS011;68401;47.192;-1.552;2023-03-30T05:44:09;39.70;;;7.05;;
78995;SDS011;68401;47.192;-1.552;2023-03-30T05:46:35;33.97;;;6.78;;
78995;SDS011;68401;47.192;-1.552;2023-03-30T05:49:00;39.85;;;7.10;;
78995;SDS011;68401;47.192;-1.552;2023-03-30T05:51:26;31.17;;;6.85;;
78995;SDS011;68401;47.192;-1.552;2023-03-30T05:53:51;30.80;;;6.65;;
78995;SDS011;68401;47.192;-1.552;2023-03-30T05:56:16;36.80;;;6.40;;
78995;SDS011;68401;47.192;-1.552;2023-03-30T05:58:42;29.25;;;5.30;;
78995;SDS011;68401;47.192;-1.552;2023-03-30T06:01:07;28.67;;;6.05;;
78995;SDS011;68401;47.192;-1.552;2023-03-30T06:03:33;30.92;;;6.05;;
78995;SDS011;68401;47.192;-1.552;2023-03-30T06:05:59;29.92;;;5.78;;
78995;SDS011;68401;47.192;-1.552;2023-03-30T06:08:24;26.27;;;6.35;;
78995;SDS011;68401;47.192;-1.552;2023-03-30T06:10:54;31.60;;;5.50;;
78995;SDS011;68401;47.192;-1.552;2023-03-30T06:13:20;33.55;;;6.47;;
78995;SDS011;68401;47.192;-1.552;2023-03-30T06:15:45;40.00;;;6.82;;
78995;SDS011;68401;47.192;-1.552;2023-03-30T06:18:11;35.88;;;6.70;;
78995;SDS011;68401;47.192;-1.552;2023-03-30T06:20:37;26.80;;;6.63;;
78995;SDS011;68401;47.192;-1.552;2023-03-30T06:23:02;36.75;;;6.05;;
78995;SDS011;68401;47.192;-1.552;2023-03-30T06:25:28;31.83;;;7.43;;
78995;SDS011;68401;47.192;-1.552;2023-03-30T06:27:54;25.73;;;5.53;;
78995;SDS011;68401;47.192;-1.552;2023-03-30T06:30:19;43.63;;;7.72;;
78995;SDS011;68401;47.192;-1.552;2023-03-30T06:32:45;39.67;;;7.38;;
78995;SDS011;68401;47.192;-1.552;2023-03-30T06:35:11;34.35;;;6.47;;
78995;SDS011;68401;47.192;-1.552;2023-03-30T06:37:37;25.42;;;6.22;;
78995;SDS011;68401;47.192;-1.552;2023-03-30T06:40:03;39.42;;;6.55;;
78995;SDS011;68401;47.192;-1.552;2023-03-30T06:42:41;26.55;;;5.75;;
78995;SDS011;68401;47.192;-1.552;2023-03-30T06:45:08;34.90;;;6.70;;
78995;SDS011;68401;47.192;-1.552;2023-03-30T06:47:35;27.80;;;6.13;;
78995;SDS011;68401;47.192;-1.552;2023-03-30T06:50:00;38.33;;;7.38;;
78995;SDS011;68401;47.192;-1.552;2023-03-30T06:52:26;26.75;;;5.40;;
78995;SDS011;68401;47.192;-1.552;2023-03-30T06:54:51;31.27;;;7.05;;
78995;SDS011;68401;47.192;-1.552;2023-03-30T06:57:17;32.63;;;6.07;;
78995;SDS011;68401;47.192;-1.552;2023-03-30T06:59:42;27.42;;;6.22;;
78995;SDS011;68401;47.192;-1.552;2023-03-30T07:02:14;37.05;;;6.68;;
78995;SDS011;68401;47.192;-1.552;2023-03-30T07:04:39;29.50;;;6.93;;
78995;SDS011;68401;47.192;-1.552;2023-03-30T07:07:05;26.25;;;5.88;;
78995;SDS011;68401;47.192;-1.552;2023-03-30T07:09:30;29.35;;;6.25;;
78995;SDS011;68401;47.192;-1.552;2023-03-30T07:11:56;33.50;;;6.72;;
78995;SDS011;68401;47.192;-1.552;2023-03-30T07:14:21;27.63;;;6.55;;
78995;SDS011;68401;47.192;-1.552;2023-03-30T07:16:47;30.88;;;7.97;;
78995;SDS011;68401;47.192;-1.552;2023-03-30T07:19:13;29.30;;;6.55;;
78995;SDS011;68401;47.192;-1.552;2023-03-30T07:21:39;32.08;;;8.18;;
78995;SDS011;68401;47.192;-1.552;2023-03-30T07:24:05;33.28;;;7.97;;
78995;SDS011;68401;47.192;-1.552;2023-03-30T07:26:32;30.50;;;6.20;;
78995;SDS011;68401;47.192;-1.552;2023-03-30T07:28:57;29.02;;;7.18;;
78995;SDS011;68401;47.192;-1.552;2023-03-30T07:31:23;36.17;;;6.97;;
78995;SDS011;68401;47.192;-1.552;2023-03-30T07:33:49;32.45;;;6.93;;
78995;SDS011;68401;47.192;-1.552;2023-03-30T07:36:16;32.38;;;6.90;;
78995;SDS011;68401;47.192;-1.552;2023-03-30T07:38:41;41.65;;;7.63;;
78995;SDS011;68401;47.192;-1.552;2023-03-30T07:41:08;24.25;;;4.32;;
78995;SDS011;68401;47.192;-1.552;2023-03-30T07:43:34;31.02;;;6.60;;
78995;SDS011;68401;47.192;-1.552;2023-03-30T07:46:00;32.25;;;5.78;;
78995;SDS011;68401;47.192;-1.552;2023-03-30T07:48:26;34.47;;;8.55;;
78995;SDS011;68401;47.192;-1.552;2023-03-30T07:50:58;26.65;;;6.28;;
78995;SDS011;68401;47.192;-1.552;2023-03-30T07:53:30;35.50;;;7.40;;
78995;SDS011;68401;47.192;-1.552;2023-03-30T07:55:56;32.05;;;5.22;;
78995;SDS011;68401;47.192;-1.552;2023-03-30T07:58:22;28.50;;;7.50;;
78995;SDS011;68401;47.192;-1.552;2023-03-30T08:00:47;26.85;;;5.85;;
78995;SDS011;68401;47.192;-1.552;2023-03-30T08:03:13;22.33;;;5.03;;
78995;SDS011;68401;47.192;-1.552;2023-03-30T08:05:39;27.98;;;6.15;;
78995;SDS011;68401;47.192;-1.552;2023-03-30T08:08:05;32.83;;;7.57;;
78995;SDS011;68401;47.192;-1.552;2023-03-30T08:10:31;25.98;;;5.63;;
78995;SDS011;68401;47.192;-1.552;2023-03-30T08:12:57;24.35;;;6.00;;
78995;SDS011;68401;47.192;-1.552;2023-03-30T08:15:23;20.13;;;4.95;;
78995;SDS011;68401;47.192;-1.552;2023-03-30T08:17:48;27.40;;;5.40;;
78995;SDS011;68401;47.192;-1.552;2023-03-30T08:20:14;29.52;;;5.60;;
78995;SDS011;68401;47.192;-1.552;2023-03-30T08:22:40;32.05;;;7.43;;
78995;SDS011;68401;47.192;-1.552;2023-03-30T08:25:05;23.67;;;4.95;;
78995;SDS011;68401;47.192;-1.552;2023-03-30T08:27:31;26.90;;;5.60;;
78995;SDS011;68401;47.192;-1.552;2023-03-30T08:29:57;29.30;;;6.47;;
78995;SDS011;68401;47.192;-1.552;2023-03-30T08:32:22;29.38;;;6.85;;
78995;SDS011;68401;47.192;-1.552;2023-03-30T08:34:48;28.35;;;5.65;;
78995;SDS011;68401;47.192;-1.552;2023-03-30T08:37:13;23.40;;;4.22;;
78995;SDS011;68401;47.192;-1.552;2023-03-30T08:39:39;23.60;;;5.72;;
78995;SDS011;68401;47.192;-1.552;2023-03-30T08:44:56;26.05;;;9.27;;
78995;SDS011;68401;47.192;-1.552;2023-03-30T08:47:37;18.50;;;6.90;;
78995;SDS011;68401;47.192;-1.552;2023-03-30T08:50:10;17.20;;;5.43;;
78995;SDS011;68401;47.192;-1.552;2023-03-30T08:52:38;18.10;;;5.22;;
78995;SDS011;68401;47.192;-1.552;2023-03-30T08:55:08;17.25;;;4.45;;
78995;SDS011;68401;47.192;-1.552;2023-03-30T08:58:09;21.95;;;7.57;;
78995;SDS011;68401;47.192;-1.552;2023-03-30T09:08:49;23.92;;;5.18;;
78995;SDS011;68401;47.192;-1.552;2023-03-30T09:11:17;26.50;;;5.22;;
78995;SDS011;68401;47.192;-1.552;2023-03-30T09:13:53;24.15;;;5.85;;
78995;SDS011;68401;47.192;-1.552;2023-03-30T09:18:46;28.80;;;5.85;;
78995;SDS011;68401;47.192;-1.552;2023-03-30T09:21:17;26.52;;;5.80;;
78995;SDS011;68401;47.192;-1.552;2023-03-30T09:23:43;31.35;;;6.07;;
78995;SDS011;68401;47.192;-1.552;2023-03-30T09:31:38;23.65;;;4.50;;
78995;SDS011;68401;47.192;-1.552;2023-03-30T09:34:07;17.80;;;5.18;;
78995;SDS011;68401;47.192;-1.552;2023-03-30T09:39:48;18.63;;;4.72;;
78995;SDS011;68401;47.192;-1.552;2023-03-30T09:49:59;22.15;;;5.32;;
78995;SDS011;68401;47.192;-1.552;2023-03-30T09:52:29;29.42;;;4.93;;
78995;SDS011;68401;47.192;-1.552;2023-03-30T09:54:56;19.55;;;4.55;;
78995;SDS011;68401;47.192;-1.552;2023-03-30T09:57:46;26.08;;;7.72;;
78995;SDS011;68401;47.192;-1.552;2023-03-30T10:02:58;24.45;;;5.45;;
78995;SDS011;68401;47.192;-1.552;2023-03-30T10:05:25;30.30;;;4.95;;
78995;SDS011;68401;47.192;-1.552;2023-03-30T10:07:55;27.65;;;6.90;;
78995;SDS011;68401;47.192;-1.552;2023-03-30T10:13:00;22.50;;;4.82;;
78995;SDS011;68401;47.192;-1.552;2023-03-30T10:15:28;21.48;;;5.28;;
78995;SDS011;68401;47.192;-1.552;2023-03-30T10:17:59;22.65;;;4.47;;
78995;SDS011;68401;47.192;-1.552;2023-03-30T10:20:33;24.65;;;5.03;;
78995;SDS011;68401;47.192;-1.552;2023-03-30T10:23:04;18.50;;;4.88;;
78995;SDS011;68401;47.192;-1.552;2023-03-30T10:25:35;17.80;;;4.97;;
78995;SDS011;68401;47.192;-1.552;2023-03-30T10:28:03;18.98;;;4.43;;
78995;SDS011;68401;47.192;-1.552;2023-03-30T10:30:30;27.10;;;4.72;;
78995;SDS011;68401;47.192;-1.552;2023-03-30T10:32:57;22.00;;;5.60;;
78995;SDS011;68401;47.192;-1.552;2023-03-30T10:35:24;23.30;;;3.95;;
78995;SDS011;68401;47.192;-1.552;2023-03-30T10:37:51;27.35;;;6.28;;
78995;SDS011;68401;47.192;-1.552;2023-03-30T10:40:27;21.75;;;5.72;;
78995;SDS011;68401;47.192;-1.552;2023-03-30T10:42:57;21.77;;;5.63;;
78995;SDS011;68401;47.192;-1.552;2023-03-30T10:48:36;21.65;;;4.70;;
78995;SDS011;68401;47.192;-1.552;2023-03-30T10:51:26;20.88;;;5.85;;
78995;SDS011;68401;47.192;-1.552;2023-03-30T10:54:10;31.02;;;6.50;;
78995;SDS011;68401;47.192;-1.552;2023-03-30T10:56:45;21.27;;;4.15;;
78995;SDS011;68401;47.192;-1.552;2023-03-30T11:04:45;23.08;;;5.55;;
78995;SDS011;68401;47.192;-1.552;2023-03-30T11:10:04;24.55;;;5.22;;
78995;SDS011;68401;47.192;-1.552;2023-03-30T11:12:38;18.50;;;5.00;;
78995;SDS011;68401;47.192;-1.552;2023-03-30T11:15:42;19.42;;;4.95;;
78995;SDS011;68401;47.192;-1.552;2023-03-30T11:20:32;21.35;;;4.20;;
78995;SDS011;68401;47.192;-1.552;2023-03-30T11:23:12;23.80;;;4.85;;
78995;SDS011;68401;47.192;-1.552;2023-03-30T11:31:02;20.05;;;6.15;;
78995;SDS011;68401;47.192;-1.552;2023-03-30T11:33:38;19.90;;;4.53;;
78995;SDS011;68401;47.192;-1.552;2023-03-30T11:36:13;20.50;;;4.45;;
78995;SDS011;68401;47.192;-1.552;2023-03-30T11:41:14;21.42;;;4.78;;
78995;SDS011;68401;47.192;-1.552;2023-03-30T11:44:00;15.73;;;4.68;;
78995;SDS011;68401;47.192;-1.552;2023-03-30T11:46:29;25.13;;;6.60;;
78995;SDS011;68401;47.192;-1.552;2023-03-30T12:05:30;20.60;;;4.82;;
78995;SDS011;68401;47.192;-1.552;2023-03-30T12:11:47;24.52;;;5.03;;
78995;SDS011;68401;47.192;-1.552;2023-03-30T12:14:01;20.95;;;4.38;;
78995;SDS011;68401;47.192;-1.552;2023-03-30T12:16:32;19.95;;;5.93;;
78995;SDS011;68401;47.192;-1.552;2023-03-30T12:19:11;21.40;;;5.45;;
78995;SDS011;68401;47.192;-1.552;2023-03-30T12:27:25;19.38;;;4.15;;
78995;SDS011;68401;47.192;-1.552;2023-03-30T12:29:51;28.77;;;4.50;;
78995;SDS011;68401;47.192;-1.552;2023-03-30T12:32:27;19.13;;;3.67;;
78995;SDS011;68401;47.192;-1.552;2023-03-30T12:34:53;16.92;;;3.33;;
78995;SDS011;68401;47.192;-1.552;2023-03-30T12:37:34;16.02;;;4.32;;
78995;SDS011;68401;47.192;-1.552;2023-03-30T12:40:05;18.10;;;4.30;;
78995;SDS011;68401;47.192;-1.552;2023-03-30T12:56:11;21.33;;;5.28;;
78995;SDS011;68401;47.192;-1.552;2023-03-30T13:04:15;19.88;;;4.53;;
78995;SDS011;68401;47.192;-1.552;2023-03-30T13:06:58;22.10;;;4.40;;
78995;SDS011;68401;47.192;-1.552;2023-03-30T13:22:34;26.85;;;7.65;;
78995;SDS011;68401;47.192;-1.552;2023-03-30T13:27:48;16.60;;;3.88;;
78995;SDS011;68401;47.192;-1.552;2023-03-30T13:45:49;19.67;;;4.45;;
78995;SDS011;68401;47.192;-1.552;2023-03-30T13:51:04;16.92;;;4.32;;
78995;SDS011;68401;47.192;-1.552;2023-03-30T13:53:34;22.55;;;3.83;;
78995;SDS011;68401;47.192;-1.552;2023-03-30T13:56:05;17.95;;;5.15;;
78995;SDS011;68401;47.192;-1.552;2023-03-30T13:58:31;15.93;;;3.70;;
78995;SDS011;68401;47.192;-1.552;2023-03-30T14:01:01;15.45;;;4.20;;
78995;SDS011;68401;47.192;-1.552;2023-03-30T14:03:41;22.63;;;4.40;;
78995;SDS011;68401;47.192;-1.552;2023-03-30T14:06:33;19.60;;;3.72;;
78995;SDS011;68401;47.192;-1.552;2023-03-30T14:11:53;18.83;;;4.75;;
78995;SDS011;68401;47.192;-1.552;2023-03-30T14:14:30;18.88;;;4.07;;
78995;SDS011;68401;47.192;-1.552;2023-03-30T14:16:59;16.50;;;3.63;;
78995;SDS011;68401;47.192;-1.552;2023-03-30T14:19:26;21.42;;;4.25;;
78995;SDS011;68401;47.192;-1.552;2023-03-30T14:21:57;16.38;;;4.75;;
78995;SDS011;68401;47.192;-1.552;2023-03-30T14:24:30;14.82;;;3.95;;
78995;SDS011;68401;47.192;-1.552;2023-03-30T14:27:04;27.88;;;5.78;;
78995;SDS011;68401;47.192;-1.552;2023-03-30T14:29:43;24.00;;;4.95;;
78995;SDS011;68401;47.192;-1.552;2023-03-30T14:32:10;26.70;;;5.88;;
78995;SDS011;68401;47.192;-1.552;2023-03-30T14:34:38;21.20;;;5.00;;
78995;SDS011;68401;47.192;-1.552;2023-03-30T14:37:04;17.27;;;3.83;;
78995;SDS011;68401;47.192;-1.552;2023-03-30T14:39:31;23.33;;;5.47;;
78995;SDS011;68401;47.192;-1.552;2023-03-30T14:42:17;20.48;;;5.00;;
78995;SDS011;68401;47.192;-1.552;2023-03-30T14:44:45;20.50;;;5.65;;
78995;SDS011;68401;47.192;-1.552;2023-03-30T14:47:12;23.80;;;5.13;;
78995;SDS011;68401;47.192;-1.552;2023-03-30T14:49:39;26.60;;;4.93;;
78995;SDS011;68401;47.192;-1.552;2023-03-30T14:54:40;18.65;;;6.03;;
78995;SDS011;68401;47.192;-1.552;2023-03-30T14:57:06;25.23;;;5.75;;
78995;SDS011;68401;47.192;-1.552;2023-03-30T14:59:34;20.67;;;5.28;;
78995;SDS011;68401;47.192;-1.552;2023-03-30T15:02:02;22.98;;;5.05;;
78995;SDS011;68401;47.192;-1.552;2023-03-30T15:04:32;25.73;;;4.88;;
78995;SDS011;68401;47.192;-1.552;2023-03-30T15:06:59;28.63;;;5.20;;
78995;SDS011;68401;47.192;-1.552;2023-03-30T15:09:25;24.70;;;5.72;;
78995;SDS011;68401;47.192;-1.552;2023-03-30T15:11:58;26.33;;;5.28;;
78995;SDS011;68401;47.192;-1.552;2023-03-30T15:14:25;30.48;;;4.55;;
78995;SDS011;68401;47.192;-1.552;2023-03-30T15:16:52;24.00;;;5.38;;
78995;SDS011;68401;47.192;-1.552;2023-03-30T15:21:53;19.25;;;4.13;;
78995;SDS011;68401;47.192;-1.552;2023-03-30T15:24:22;19.52;;;4.55;;
78995;SDS011;68401;47.192;-1.552;2023-03-30T15:26:53;26.30;;;5.97;;
78995;SDS011;68401;47.192;-1.552;2023-03-30T15:29:20;18.85;;;5.30;;
78995;SDS011;68401;47.192;-1.552;2023-03-30T15:31:47;25.55;;;6.10;;
78995;SDS011;68401;47.192;-1.552;2023-03-30T15:34:23;23.98;;;4.82;;
78995;SDS011;68401;47.192;-1.552;2023-03-30T15:36:51;23.52;;;4.43;;
78995;SDS011;68401;47.192;-1.552;2023-03-30T15:39:25;17.33;;;4.38;;
78995;SDS011;68401;47.192;-1.552;2023-03-30T15:42:04;22.83;;;4.18;;
78995;SDS011;68401;47.192;-1.552;2023-03-30T15:44:35;27.48;;;5.97;;
78995;SDS011;68401;47.192;-1.552;2023-03-30T15:47:02;24.65;;;4.72;;
78995;SDS011;68401;47.192;-1.552;2023-03-30T15:49:39;19.33;;;4.32;;
78995;SDS011;68401;47.192;-1.552;2023-03-30T15:52:15;23.35;;;4.70;;
78995;SDS011;68401;47.192;-1.552;2023-03-30T15:55:22;18.20;;;4.78;;
78995;SDS011;68401;47.192;-1.552;2023-03-30T15:57:50;20.45;;;4.30;;
78995;SDS011;68401;47.192;-1.552;2023-03-30T16:00:18;21.95;;;4.78;;
78995;SDS011;68401;47.192;-1.552;2023-03-30T16:02:58;22.40;;;5.15;;
78995;SDS011;68401;47.192;-1.552;2023-03-30T16:05:33;18.20;;;3.97;;
78995;SDS011;68401;47.192;-1.552;2023-03-30T16:07:59;25.15;;;4.55;;
78995;SDS011;68401;47.192;-1.552;2023-03-30T16:10:26;16.73;;;3.65;;
78995;SDS011;68401;47.192;-1.552;2023-03-30T16:15:19;21.73;;;4.50;;
78995;SDS011;68401;47.192;-1.552;2023-03-30T16:17:46;17.55;;;5.07;;
78995;SDS011;68401;47.192;-1.552;2023-03-30T16:20:25;26.85;;;5.30;;
78995;SDS011;68401;47.192;-1.552;2023-03-30T16:22:53;22.98;;;4.97;;
78995;SDS011;68401;47.192;-1.552;2023-03-30T16:25:20;19.23;;;4.20;;
78995;SDS011;68401;47.192;-1.552;2023-03-30T16:27:46;22.40;;;4.47;;
78995;SDS011;68401;47.192;-1.552;2023-03-30T16:32:45;24.67;;;5.15;;
78995;SDS011;68401;47.192;-1.552;2023-03-30T16:35:11;23.05;;;4.95;;
78995;SDS011;68401;47.192;-1.552;2023-03-30T16:37:36;18.85;;;4.35;;
78995;SDS011;68401;47.192;-1.552;2023-03-30T16:40:09;19.65;;;4.38;;
78995;SDS011;68401;47.192;-1.552;2023-03-30T16:42:39;23.35;;;5.05;;
78995;SDS011;68401;47.192;-1.552;2023-03-30T16:45:05;14.18;;;5.05;;
78995;SDS011;68401;47.192;-1.552;2023-03-30T16:47:31;19.77;;;5.30;;
78995;SDS011;68401;47.192;-1.552;2023-03-30T16:49:56;19.83;;;5.97;;
78995;SDS011;68401;47.192;-1.552;2023-03-30T16:52:22;18.63;;;3.85;;
78995;SDS011;68401;47.192;-1.552;2023-03-30T16:54:47;17.23;;;3.85;;
78995;SDS011;68401;47.192;-1.552;2023-03-30T16:57:12;25.63;;;5.10;;
78995;SDS011;68401;47.192;-1.552;2023-03-30T16:59:38;21.25;;;5.32;;
78995;SDS011;68401;47.192;-1.552;2023-03-30T17:02:03;29.02;;;4.72;;
78995;SDS011;68401;47.192;-1.552;2023-03-30T17:04:29;14.38;;;3.67;;
78995;SDS011;68401;47.192;-1.552;2023-03-30T17:06:54;16.92;;;3.92;;
78995;SDS011;68401;47.192;-1.552;2023-03-30T17:09:20;17.52;;;4.22;;
78995;SDS011;68401;47.192;-1.552;2023-03-30T17:11:46;23.52;;;5.85;;
78995;SDS011;68401;47.192;-1.552;2023-03-30T17:14:12;19.58;;;4.35;;
78995;SDS011;68401;47.192;-1.552;2023-03-30T17:16:38;21.20;;;3.85;;
78995;SDS011;68401;47.192;-1.552;2023-03-30T17:19:04;22.85;;;5.22;;
78995;SDS011;68401;47.192;-1.552;2023-03-30T17:21:30;23.65;;;5.05;;
78995;SDS011;68401;47.192;-1.552;2023-03-30T17:23:56;20.00;;;4.60;;
78995;SDS011;68401;47.192;-1.552;2023-03-30T17:26:22;22.08;;;4.53;;
78995;SDS011;68401;47.192;-1.552;2023-03-30T17:28:48;24.27;;;4.85;;
78995;SDS011;68401;47.192;-1.552;2023-03-30T17:31:17;22.35;;;5.32;;
78995;SDS011;68401;47.192;-1.552;2023-03-30T17:33:44;19.05;;;4.30;;
78995;SDS011;68401;47.192;-1.552;2023-03-30T17:36:16;21.63;;;5.07;;
78995;SDS011;68401;47.192;-1.552;2023-03-30T17:38:43;21.52;;;4.63;;
78995;SDS011;68401;47.192;-1.552;2023-03-30T17:41:09;19.00;;;4.50;;
78995;SDS011;68401;47.192;-1.552;2023-03-30T17:43:39;32.80;;;6.68;;
78995;SDS011;68401;47.192;-1.552;2023-03-30T17:46:05;18.65;;;4.72;;